Thursday, November 23, 2017, 1:34 PM EST
Back to Local

KMPV, Knapp State Airport

Location: Barre, VT, United States Lat: 44.2
Local Time: 1:34 PM EST (18:34 GMT) Lon: -72.567
Time Zone: US/Eastern Elev: 1164 ft

Show me the last for .
Show Decoded

2017-11-23 12:51 METAR KMPV 231751Z AUTO 33004KT 10SM OVC110 M03/M10 A3000 RMK AO2 SLP176
                 T10331100 11033 21083 58022 =
2017-11-23 11:51 METAR KMPV 231651Z AUTO 33006KT 10SM FEW120 M03/M10 A3003 RMK AO2 SLP186
                 T10331100 =
2017-11-23 10:51 METAR KMPV 231551Z AUTO VRB04KT 10SM CLR M04/M11 A3005 RMK AO2 SLP196 T10441106
                 =
2017-11-23 09:51 METAR KMPV 231451Z AUTO 31009KT 10SM CLR M06/M11 A3007 RMK AO2 SLP199 T10611106
                 58002 =
2017-11-23 08:51 METAR KMPV 231351Z AUTO 36006KT 10SM CLR M07/M10 A3007 RMK AO2 SLP202 T10671100
                 =
2017-11-23 07:51 METAR KMPV 231251Z AUTO 31009G15KT 10SM CLR M08/M11 A3007 RMK AO2 SLP203
                 T10781111 =
2017-11-23 06:51 METAR KMPV 231151Z AUTO 32006KT 10SM CLR M08/M12 A3007 RMK AO2 SLP202 60000
                 70005 T10831117 11044 21083 50006 =
2017-11-23 05:51 METAR KMPV 231051Z AUTO 32009G15KT 10SM CLR M08/M11 A3008 RMK AO2 SLP204
                 T10831111 =
2017-11-23 04:51 METAR KMPV 230951Z AUTO 30010KT 10SM CLR M08/M11 A3006 RMK AO2 SLP198 T10781111
                 =
2017-11-23 03:51 METAR KMPV 230851Z AUTO 31006KT 10SM SCT024 M07/M10 A3005 RMK AO2 SLP196 60000
                 T10721100 51008 =
2017-11-23 02:51 METAR KMPV 230751Z AUTO 10SM OVC024 M06/M09 A3005 RMK AO2 SNB28E35 SLP193 P0000
                 T10561089 =
2017-11-23 01:51 METAR KMPV 230651Z AUTO 32003KT 10SM OVC018 M05/M08 A3004 RMK AO2 SLP190
                 T10501078 =
2017-11-23 00:51 METAR KMPV 230551Z AUTO 32008G15KT 10SM OVC020 M04/M08 A3003 RMK AO2 PK WND
                 34027/0503 SLP185 T10441078 10000 21044 51009 =
2017-11-22 23:51 METAR KMPV 230451Z AUTO 32015G25KT 10SM BKN023 M04/M08 A3002 RMK AO2 PK WND
                 30028/0436 SLP182 T10441078 400611044 =
2017-11-22 22:51 METAR KMPV 230351Z AUTO 32013G22KT 10SM BKN016 OVC022 M03/M06 A3002 RMK AO2
                 SLP180 T10331056 =
2017-11-22 21:51 METAR KMPV 230251Z AUTO 31015G22KT 10SM BKN019 OVC026 M02/M05 A3000 RMK AO2 PK
                 WND 31027/0228 SLP175 T10221050 51007 =
2017-11-22 21:30 METAR KMPV 230230Z AUTO 30016G27KT 10SM BKN026 BKN031 OVC042 M02/M05 A3001 RMK
                 AO2 PK WND 31027/0228 T10221050 =
2017-11-22 20:51 METAR KMPV 230151Z AUTO 30016G26KT 10SM FEW023 OVC043 M02/M04 A3000 RMK AO2 PK
                 WND 30026/0150 SLP173 T10171044 =
2017-11-22 20:34 METAR KMPV 230134Z AUTO 31016G24KT 10SM FEW018 SCT024 OVC043 M02/M04 A3000 RMK
                 AO2 T10171044 =
2017-11-22 19:51 METAR KMPV 230051Z AUTO 32010KT 10SM BKN016 OVC023 M01/M02 A3000 RMK AO2 SLP174
                 T10111022 =
2017-11-22 18:51 METAR KMPV 222351Z AUTO 31012KT 10SM SCT023 BKN029 OVC045 00/M02 A2998 RMK AO2
                 SLP168 60001 T00001022 10011 20000 53012 =
2017-11-22 18:38 METAR KMPV 222338Z AUTO 32009KT 10SM SCT021 BKN027 OVC033 00/M02 A2998 RMK AO2
                 T00001017 =
2017-11-22 18:24 METAR KMPV 222324Z AUTO 31010KT 10SM SCT024 BKN034 OVC042 00/M02 A2998 RMK AO2
                 T00001017 =
2017-11-22 17:51 METAR KMPV 222251Z AUTO 31007KT 10SM BKN017 BKN025 OVC031 01/M01 A2997 RMK AO2
                 SLP160 T00061006 =
2017-11-22 16:51 METAR KMPV 222151Z AUTO 33006KT 10SM OVC023 01/M01 A2996 RMK AO2 SLP159
                 T00061006 =
2017-11-22 15:51 METAR KMPV 222051Z AUTO 31005KT 10SM OVC029 01/00 A2995 RMK AO2 SLP154 60001
                 T00060000 53007 =
2017-11-22 15:21 METAR KMPV 222021Z AUTO 29004KT 10SM BKN029 OVC045 01/00 A2995 RMK AO2 T00060000
                 =
2017-11-22 14:51 METAR KMPV 221951Z AUTO 30007KT 10SM FEW008 SCT012 OVC045 01/01 A2994 RMK AO2
                 SNE21 SLP152 P0000 T00060006 =
2017-11-22 14:44 METAR KMPV 221944Z AUTO 32006KT 10SM SCT010 OVC045 01/01 A2994 RMK AO2 SNE21
                 P0000 T00060006 =
2017-11-22 13:51 METAR KMPV 221851Z AUTO 33007KT 3SM -SN BR BKN006 OVC028 01/01 A2992 RMK AO2
                 SLP147 P0001 T00060006 =

Support USWX by starting your Amazon purchase here.